AFR603 SBBE-SOCA
Flight info
| Callsign | AFR603 |
|---|---|
| Flight time | 1h 10m |
| Altitude | 36000 |
| Route | ILMAN UZ81 BEL UA555 ALDIX ALDIX1S |
| Aircraft | A320/M-SDE2E3FGIJ1RWY/HB1 |
Departure
| Time | 2026-05-05 08:41 |
|---|---|
| Airport | Val de Cans/Júlio Cezar Ribeiro International Airport (SBBE) |
Arrival
| Time | 2026-05-05 09:51 |
|---|---|
| Airport | Cayenne – Félix Eboué Airport (SOCA) |
| Time | Latitude | Longitude | Altitude | Speed | Heading |
|---|---|---|---|---|---|
| 2026-05-05 08:15 | -1.38862 | -48.47898 | 51 ft | 0 kts | 225° |
| 2026-05-05 08:28 | -1.38862 | -48.47897 | 55 ft | 1 kts | 225° |
| 2026-05-05 08:28 | -1.38848 | -48.47884 | 53 ft | 4 kts | 226° |
| 2026-05-05 08:29 | -1.38831 | -48.47863 | 47 ft | 4 kts | 238° |
| 2026-05-05 08:29 | -1.38820 | -48.47839 | 50 ft | 4 kts | 261° |
| 2026-05-05 08:29 | -1.38818 | -48.47825 | 50 ft | 0 kts | 275° |
| 2026-05-05 08:35 | -1.38817 | -48.47828 | 49 ft | 2 kts | 286° |
| 2026-05-05 08:35 | -1.38788 | -48.47814 | 54 ft | 10 kts | 32° |
| 2026-05-05 08:36 | -1.38697 | -48.47795 | 55 ft | 14 kts | 349° |
| 2026-05-05 08:36 | -1.38668 | -48.47872 | 54 ft | 12 kts | 267° |
| 2026-05-05 08:36 | -1.38671 | -48.47957 | 52 ft | 12 kts | 270° |
| 2026-05-05 08:36 | -1.38673 | -48.48041 | 50 ft | 12 kts | 269° |
| 2026-05-05 08:37 | -1.38675 | -48.48122 | 49 ft | 12 kts | 269° |
| 2026-05-05 08:37 | -1.38675 | -48.48200 | 47 ft | 11 kts | 270° |
| 2026-05-05 08:37 | -1.38712 | -48.48260 | 46 ft | 10 kts | 225° |
| 2026-05-05 08:37 | -1.38756 | -48.48305 | 46 ft | 9 kts | 226° |
| 2026-05-05 08:38 | -1.38795 | -48.48343 | 46 ft | 7 kts | 225° |
| 2026-05-05 08:38 | -1.38810 | -48.48370 | 46 ft | 0 kts | 256° |
| 2026-05-05 08:39 | -1.38816 | -48.48405 | 45 ft | 11 kts | 264° |
| 2026-05-05 08:39 | -1.38806 | -48.48491 | 43 ft | 10 kts | 309° |
| 2026-05-05 08:39 | -1.38785 | -48.48479 | 44 ft | 3 kts | 62° |
| 2026-05-05 08:39 | -1.38780 | -48.48474 | 44 ft | 0 kts | 48° |
| 2026-05-05 08:40 | -1.38731 | -48.48423 | 44 ft | 42 kts | 45° |
| 2026-05-05 08:40 | -1.38350 | -48.48040 | 49 ft | 110 kts | 45° |
| 2026-05-05 08:40 | -1.37674 | -48.47359 | 54 ft | 163 kts | 46° |
| 2026-05-05 08:41 | -1.36852 | -48.46540 | 546 ft | 169 kts | 45° |
| 2026-05-05 08:41 | -1.35993 | -48.45726 | 1195 ft | 171 kts | 45° |
| 2026-05-05 08:41 | -1.35085 | -48.44969 | 1934 ft | 169 kts | 43° |
| 2026-05-05 08:41 | -1.34056 | -48.44400 | 2595 ft | 174 kts | 17° |
| 2026-05-05 08:42 | -1.32834 | -48.44508 | 3180 ft | 185 kts | 338° |
| 2026-05-05 08:42 | -1.31710 | -48.45260 | 3521 ft | 206 kts | 327° |
| 2026-05-05 08:42 | -1.30507 | -48.46173 | 3778 ft | 229 kts | 326° |
| 2026-05-05 08:42 | -1.29177 | -48.47197 | 4039 ft | 253 kts | 325° |
| 2026-05-05 08:43 | -1.27716 | -48.48322 | 4396 ft | 277 kts | 325° |
| 2026-05-05 08:43 | -1.26151 | -48.49530 | 4998 ft | 289 kts | 324° |
| 2026-05-05 08:43 | -1.24548 | -48.50768 | 5793 ft | 293 kts | 324° |
| 2026-05-05 08:43 | -1.22927 | -48.52016 | 6609 ft | 295 kts | 324° |
| 2026-05-05 08:44 | -1.21294 | -48.53268 | 7397 ft | 297 kts | 324° |
| 2026-05-05 08:44 | -1.19646 | -48.54528 | 8188 ft | 299 kts | 325° |
| 2026-05-05 08:44 | -1.17984 | -48.55795 | 8970 ft | 301 kts | 325° |
| 2026-05-05 08:44 | -1.16311 | -48.57070 | 9754 ft | 304 kts | 325° |
| 2026-05-05 08:45 | -1.14613 | -48.58361 | 10309 ft | 314 kts | 325° |
| 2026-05-05 08:45 | -1.12811 | -48.59726 | 10489 ft | 337 kts | 325° |
| 2026-05-05 08:45 | -1.10903 | -48.61171 | 10862 ft | 349 kts | 324° |
| 2026-05-05 08:45 | -1.08958 | -48.62650 | 11467 ft | 354 kts | 324° |
| 2026-05-05 08:46 | -1.06992 | -48.64152 | 12108 ft | 358 kts | 324° |
| 2026-05-05 08:46 | -1.05007 | -48.65670 | 12757 ft | 361 kts | 324° |
| 2026-05-05 08:46 | -1.03005 | -48.67200 | 13399 ft | 364 kts | 324° |
| 2026-05-05 08:46 | -1.00983 | -48.68745 | 13998 ft | 367 kts | 324° |
| 2026-05-05 08:47 | -0.98944 | -48.70301 | 14550 ft | 370 kts | 324° |
| 2026-05-05 08:47 | -0.96887 | -48.71868 | 15104 ft | 373 kts | 324° |
| 2026-05-05 08:47 | -0.94815 | -48.73446 | 15640 ft | 376 kts | 324° |
| 2026-05-05 08:47 | -0.92725 | -48.75036 | 16177 ft | 379 kts | 324° |
| 2026-05-05 08:48 | -0.90621 | -48.76636 | 16701 ft | 382 kts | 324° |
| 2026-05-05 08:48 | -0.88501 | -48.78253 | 17225 ft | 385 kts | 324° |
| 2026-05-05 08:48 | -0.86368 | -48.79883 | 17740 ft | 388 kts | 324° |
| 2026-05-05 08:48 | -0.84216 | -48.81523 | 18243 ft | 391 kts | 324° |
| 2026-05-05 08:49 | -0.82044 | -48.83172 | 18674 ft | 393 kts | 326° |
| 2026-05-05 08:49 | -0.79745 | -48.84661 | 19109 ft | 395 kts | 329° |
| 2026-05-05 08:49 | -0.77409 | -48.86121 | 19540 ft | 398 kts | 329° |
| 2026-05-05 08:49 | -0.75054 | -48.87594 | 19974 ft | 401 kts | 329° |
| 2026-05-05 08:50 | -0.72684 | -48.89080 | 20411 ft | 403 kts | 329° |
| 2026-05-05 08:50 | -0.70300 | -48.90577 | 20843 ft | 406 kts | 329° |
| 2026-05-05 08:50 | -0.67901 | -48.92082 | 21263 ft | 409 kts | 329° |
| 2026-05-05 08:50 | -0.65483 | -48.93597 | 21699 ft | 412 kts | 329° |
| 2026-05-05 08:51 | -0.63050 | -48.95123 | 22119 ft | 415 kts | 329° |
| 2026-05-05 08:51 | -0.60600 | -48.96660 | 22535 ft | 417 kts | 329° |
| 2026-05-05 08:51 | -0.58134 | -48.98210 | 22943 ft | 420 kts | 329° |
| 2026-05-05 08:51 | -0.55652 | -48.99769 | 23333 ft | 423 kts | 329° |
| 2026-05-05 08:52 | -0.53150 | -49.01336 | 23688 ft | 426 kts | 329° |
| 2026-05-05 08:52 | -0.50629 | -49.02911 | 24013 ft | 428 kts | 329° |
| 2026-05-05 08:52 | -0.48099 | -49.04492 | 24340 ft | 430 kts | 329° |
| 2026-05-05 08:52 | -0.45559 | -49.06082 | 24662 ft | 432 kts | 329° |
| 2026-05-05 08:53 | -0.43006 | -49.07682 | 24985 ft | 434 kts | 329° |
| 2026-05-05 08:53 | -0.40448 | -49.09291 | 25301 ft | 436 kts | 329° |
| 2026-05-05 08:53 | -0.37874 | -49.10908 | 25610 ft | 438 kts | 329° |
| 2026-05-05 08:53 | -0.35291 | -49.12528 | 25915 ft | 440 kts | 329° |
| 2026-05-05 08:54 | -0.32696 | -49.14154 | 26216 ft | 441 kts | 328° |
| 2026-05-05 08:54 | -0.30088 | -49.15788 | 26509 ft | 443 kts | 328° |
| 2026-05-05 08:54 | -0.27470 | -49.17429 | 26795 ft | 445 kts | 328° |
| 2026-05-05 08:54 | -0.24842 | -49.19076 | 27073 ft | 447 kts | 328° |
| 2026-05-05 08:55 | -0.22204 | -49.20727 | 27340 ft | 449 kts | 328° |
| 2026-05-05 08:55 | -0.19552 | -49.22386 | 27613 ft | 451 kts | 328° |
| 2026-05-05 08:55 | -0.16892 | -49.24054 | 27889 ft | 452 kts | 328° |
| 2026-05-05 08:55 | -0.14221 | -49.25730 | 28147 ft | 454 kts | 328° |
| 2026-05-05 08:56 | -0.11536 | -49.27411 | 28404 ft | 456 kts | 328° |
| 2026-05-05 08:56 | -0.08843 | -49.29099 | 28659 ft | 458 kts | 328° |
| 2026-05-05 08:56 | -0.06136 | -49.30796 | 28911 ft | 460 kts | 328° |
| 2026-05-05 08:56 | -0.03421 | -49.32500 | 29156 ft | 462 kts | 328° |
| 2026-05-05 08:57 | -0.00699 | -49.34208 | 29396 ft | 464 kts | 328° |
| 2026-05-05 08:57 | 0.02040 | -49.35928 | 29593 ft | 466 kts | 328° |
| 2026-05-05 08:57 | 0.04795 | -49.37659 | 29760 ft | 470 kts | 328° |
| 2026-05-05 08:57 | 0.07565 | -49.39399 | 30013 ft | 471 kts | 328° |
| 2026-05-05 08:58 | 0.10346 | -49.41137 | 30216 ft | 472 kts | 328° |
| 2026-05-05 08:58 | 0.13134 | -49.42877 | 30411 ft | 473 kts | 328° |
| 2026-05-05 08:58 | 0.15927 | -49.44628 | 30587 ft | 474 kts | 328° |
| 2026-05-05 08:58 | 0.18727 | -49.46385 | 30749 ft | 476 kts | 328° |
| 2026-05-05 08:59 | 0.21535 | -49.48148 | 30934 ft | 477 kts | 328° |
| 2026-05-05 08:59 | 0.24350 | -49.49913 | 31129 ft | 477 kts | 328° |
| 2026-05-05 08:59 | 0.27160 | -49.51671 | 31433 ft | 475 kts | 328° |
| 2026-05-05 08:59 | 0.29961 | -49.53425 | 31667 ft | 475 kts | 328° |
| 2026-05-05 09:00 | 0.32755 | -49.55177 | 31898 ft | 475 kts | 328° |
| 2026-05-05 09:00 | 0.35516 | -49.56911 | 32133 ft | 474 kts | 328° |
| 2026-05-05 09:00 | 0.38308 | -49.58663 | 32393 ft | 474 kts | 328° |
| 2026-05-05 09:00 | 0.41093 | -49.60412 | 32671 ft | 472 kts | 328° |
| 2026-05-05 09:01 | 0.43871 | -49.62156 | 32921 ft | 472 kts | 328° |
| 2026-05-05 09:01 | 0.46650 | -49.63898 | 33173 ft | 471 kts | 329° |
| 2026-05-05 09:01 | 0.49431 | -49.65635 | 33404 ft | 471 kts | 328° |
| 2026-05-05 09:01 | 0.52207 | -49.67369 | 33682 ft | 470 kts | 329° |
| 2026-05-05 09:02 | 0.54979 | -49.69100 | 33967 ft | 469 kts | 329° |
| 2026-05-05 09:02 | 0.57741 | -49.70829 | 34198 ft | 468 kts | 329° |
| 2026-05-05 09:02 | 0.60498 | -49.72560 | 34382 ft | 468 kts | 329° |
| 2026-05-05 09:02 | 0.63258 | -49.74292 | 34553 ft | 469 kts | 329° |
| 2026-05-05 09:03 | 0.66023 | -49.76027 | 34768 ft | 468 kts | 329° |
| 2026-05-05 09:03 | 0.68780 | -49.77756 | 34969 ft | 468 kts | 328° |
| 2026-05-05 09:03 | 0.71530 | -49.79484 | 35198 ft | 467 kts | 329° |
| 2026-05-05 09:03 | 0.74278 | -49.81215 | 35373 ft | 467 kts | 329° |
| 2026-05-05 09:04 | 0.77023 | -49.82939 | 35550 ft | 467 kts | 329° |
| 2026-05-05 09:04 | 0.79777 | -49.84663 | 35736 ft | 466 kts | 329° |
| 2026-05-05 09:04 | 0.82521 | -49.86380 | 35915 ft | 466 kts | 329° |
| 2026-05-05 09:05 | 0.87978 | -49.89803 | 35971 ft | 461 kts | 329° |
| 2026-05-05 09:05 | 0.93384 | -49.93188 | 35975 ft | 461 kts | 329° |
| 2026-05-05 09:06 | 0.98816 | -49.96589 | 35977 ft | 460 kts | 329° |
| 2026-05-05 09:06 | 1.04236 | -49.99985 | 35975 ft | 460 kts | 328° |
| 2026-05-05 09:07 | 1.09651 | -50.03384 | 35979 ft | 460 kts | 328° |
| 2026-05-05 09:07 | 1.14150 | -50.06213 | 35979 ft | 460 kts | 328° |
| 2026-05-05 09:08 | 1.19566 | -50.09614 | 35978 ft | 460 kts | 328° |
| 2026-05-05 09:08 | 1.24990 | -50.13015 | 35969 ft | 461 kts | 328° |
| 2026-05-05 09:09 | 1.30426 | -50.16415 | 35978 ft | 461 kts | 328° |
| 2026-05-05 09:09 | 1.35859 | -50.19822 | 35987 ft | 461 kts | 328° |
| 2026-05-05 09:10 | 1.41294 | -50.23233 | 35989 ft | 461 kts | 328° |
| 2026-05-05 09:10 | 1.46728 | -50.26648 | 35987 ft | 461 kts | 328° |
| 2026-05-05 09:11 | 1.52160 | -50.30059 | 35988 ft | 461 kts | 328° |
| 2026-05-05 09:11 | 1.57600 | -50.33460 | 35989 ft | 461 kts | 328° |
| 2026-05-05 09:12 | 1.63030 | -50.36865 | 35989 ft | 461 kts | 328° |
| 2026-05-05 09:12 | 1.68460 | -50.40271 | 35992 ft | 461 kts | 328° |
| 2026-05-05 09:13 | 1.73887 | -50.43688 | 35990 ft | 461 kts | 328° |
| 2026-05-05 09:13 | 1.79318 | -50.47094 | 35985 ft | 461 kts | 328° |
| 2026-05-05 09:14 | 1.84754 | -50.50497 | 35989 ft | 461 kts | 328° |
| 2026-05-05 09:14 | 1.90193 | -50.53909 | 35989 ft | 461 kts | 328° |
| 2026-05-05 09:15 | 1.95630 | -50.57323 | 35988 ft | 461 kts | 328° |
| 2026-05-05 09:15 | 2.01065 | -50.60737 | 35991 ft | 462 kts | 328° |
| 2026-05-05 09:16 | 2.06501 | -50.64158 | 35987 ft | 462 kts | 328° |
| 2026-05-05 09:16 | 2.11944 | -50.67571 | 35986 ft | 462 kts | 328° |
| 2026-05-05 09:17 | 2.17394 | -50.70988 | 35990 ft | 462 kts | 328° |
| 2026-05-05 09:17 | 2.22820 | -50.74450 | 35991 ft | 463 kts | 327° |
| 2026-05-05 09:18 | 2.28212 | -50.77969 | 35990 ft | 463 kts | 327° |
| 2026-05-05 09:18 | 2.33610 | -50.81479 | 35984 ft | 463 kts | 327° |
| 2026-05-05 09:19 | 2.39024 | -50.84971 | 35994 ft | 463 kts | 327° |
| 2026-05-05 09:19 | 2.44443 | -50.88459 | 35995 ft | 463 kts | 327° |
| 2026-05-05 09:20 | 2.49856 | -50.91953 | 35997 ft | 463 kts | 327° |
| 2026-05-05 09:20 | 2.55272 | -50.95456 | 35997 ft | 463 kts | 327° |
| 2026-05-05 09:21 | 2.60688 | -50.98953 | 35997 ft | 463 kts | 327° |
| 2026-05-05 09:21 | 2.66108 | -51.02450 | 35992 ft | 464 kts | 327° |
| 2026-05-05 09:22 | 2.71529 | -51.05948 | 36002 ft | 464 kts | 327° |
| 2026-05-05 09:22 | 2.76945 | -51.09449 | 35995 ft | 464 kts | 327° |
| 2026-05-05 09:23 | 2.82360 | -51.12954 | 36002 ft | 464 kts | 327° |
| 2026-05-05 09:23 | 2.87775 | -51.16459 | 36002 ft | 464 kts | 327° |
| 2026-05-05 09:24 | 2.93193 | -51.19958 | 36001 ft | 464 kts | 327° |
| 2026-05-05 09:24 | 2.98651 | -51.23479 | 36003 ft | 464 kts | 327° |
| 2026-05-05 09:25 | 3.04069 | -51.26980 | 35997 ft | 464 kts | 327° |
| 2026-05-05 09:25 | 3.09450 | -51.30459 | 35994 ft | 464 kts | 327° |
| 2026-05-05 09:26 | 3.14863 | -51.33967 | 36006 ft | 464 kts | 327° |
| 2026-05-05 09:26 | 3.20288 | -51.37463 | 36001 ft | 464 kts | 327° |
| 2026-05-05 09:27 | 3.25713 | -51.40973 | 35998 ft | 464 kts | 327° |
| 2026-05-05 09:27 | 3.31141 | -51.44485 | 35387 ft | 465 kts | 327° |
| 2026-05-05 09:27 | 3.33852 | -51.46238 | 34832 ft | 463 kts | 327° |
| 2026-05-05 09:28 | 3.36549 | -51.47985 | 34266 ft | 461 kts | 327° |
| 2026-05-05 09:28 | 3.39237 | -51.49724 | 33654 ft | 459 kts | 327° |
| 2026-05-05 09:28 | 3.41916 | -51.51455 | 33092 ft | 456 kts | 327° |
| 2026-05-05 09:28 | 3.44575 | -51.53172 | 32539 ft | 453 kts | 327° |
| 2026-05-05 09:29 | 3.47215 | -51.54880 | 31980 ft | 451 kts | 327° |
| 2026-05-05 09:29 | 3.49839 | -51.56578 | 31442 ft | 448 kts | 327° |
| 2026-05-05 09:29 | 3.52452 | -51.58269 | 30901 ft | 446 kts | 326° |
| 2026-05-05 09:29 | 3.55049 | -51.59950 | 30361 ft | 444 kts | 326° |
| 2026-05-05 09:30 | 3.57636 | -51.61629 | 29800 ft | 442 kts | 326° |
| 2026-05-05 09:30 | 3.60204 | -51.63295 | 29262 ft | 437 kts | 326° |
| 2026-05-05 09:30 | 3.62743 | -51.64941 | 28752 ft | 433 kts | 326° |
| 2026-05-05 09:30 | 3.65259 | -51.66569 | 28245 ft | 429 kts | 326° |
| 2026-05-05 09:31 | 3.67750 | -51.68181 | 27769 ft | 424 kts | 327° |
| 2026-05-05 09:31 | 3.70218 | -51.69777 | 27296 ft | 420 kts | 327° |
| 2026-05-05 09:31 | 3.72663 | -51.71358 | 26832 ft | 416 kts | 327° |
| 2026-05-05 09:31 | 3.75086 | -51.72925 | 26368 ft | 413 kts | 327° |
| 2026-05-05 09:32 | 3.77490 | -51.74483 | 25910 ft | 410 kts | 327° |
| 2026-05-05 09:32 | 3.79878 | -51.76030 | 25443 ft | 408 kts | 327° |
| 2026-05-05 09:32 | 3.82255 | -51.77570 | 24961 ft | 406 kts | 327° |
| 2026-05-05 09:32 | 3.84624 | -51.79104 | 24488 ft | 405 kts | 327° |
| 2026-05-05 09:33 | 3.86988 | -51.80625 | 23993 ft | 404 kts | 328° |
| 2026-05-05 09:33 | 3.89382 | -51.82093 | 23508 ft | 403 kts | 329° |
| 2026-05-05 09:33 | 3.91777 | -51.83506 | 22948 ft | 394 kts | 330° |
| 2026-05-05 09:33 | 3.94104 | -51.84855 | 22485 ft | 379 kts | 330° |
| 2026-05-05 09:34 | 3.96342 | -51.86152 | 22031 ft | 365 kts | 330° |
| 2026-05-05 09:34 | 3.98502 | -51.87409 | 21586 ft | 353 kts | 330° |
| 2026-05-05 09:34 | 4.00585 | -51.88630 | 21168 ft | 341 kts | 330° |
| 2026-05-05 09:34 | 4.02621 | -51.89832 | 20766 ft | 341 kts | 330° |
| 2026-05-05 09:35 | 4.04689 | -51.91057 | 20344 ft | 341 kts | 330° |
| 2026-05-05 09:35 | 4.08774 | -51.93483 | 19515 ft | 342 kts | 330° |
| 2026-05-05 09:35 | 4.10820 | -51.94696 | 19103 ft | 342 kts | 331° |
| 2026-05-05 09:36 | 4.12843 | -51.95894 | 18695 ft | 343 kts | 331° |
| 2026-05-05 09:36 | 4.14904 | -51.97114 | 18282 ft | 344 kts | 331° |
| 2026-05-05 09:36 | 4.16994 | -51.98354 | 17825 ft | 345 kts | 331° |
| 2026-05-05 09:36 | 4.19055 | -51.99575 | 17408 ft | 344 kts | 331° |
| 2026-05-05 09:37 | 4.21076 | -52.00773 | 17008 ft | 343 kts | 332° |
| 2026-05-05 09:37 | 4.23113 | -52.02025 | 16600 ft | 343 kts | 326° |
| 2026-05-05 09:37 | 4.24905 | -52.03608 | 16199 ft | 345 kts | 314° |
| 2026-05-05 09:37 | 4.26464 | -52.05442 | 15798 ft | 346 kts | 312° |
| 2026-05-05 09:38 | 4.28019 | -52.07281 | 15396 ft | 346 kts | 312° |
| 2026-05-05 09:38 | 4.29579 | -52.09121 | 14992 ft | 347 kts | 312° |
| 2026-05-05 09:38 | 4.31142 | -52.10963 | 14587 ft | 347 kts | 312° |
| 2026-05-05 09:38 | 4.32705 | -52.12806 | 14188 ft | 347 kts | 312° |
| 2026-05-05 09:39 | 4.34269 | -52.14650 | 13783 ft | 348 kts | 312° |
| 2026-05-05 09:39 | 4.35857 | -52.16523 | 13329 ft | 347 kts | 313° |
| 2026-05-05 09:39 | 4.37397 | -52.18338 | 12932 ft | 346 kts | 313° |
| 2026-05-05 09:39 | 4.38972 | -52.20195 | 12519 ft | 344 kts | 313° |
| 2026-05-05 09:40 | 4.40497 | -52.21998 | 12113 ft | 343 kts | 313° |
| 2026-05-05 09:40 | 4.42035 | -52.23821 | 11703 ft | 342 kts | 313° |
| 2026-05-05 09:40 | 4.43567 | -52.25635 | 11353 ft | 339 kts | 313° |
| 2026-05-05 09:40 | 4.45065 | -52.27407 | 11228 ft | 328 kts | 313° |
| 2026-05-05 09:41 | 4.46527 | -52.29134 | 10947 ft | 323 kts | 313° |
| 2026-05-05 09:41 | 4.47974 | -52.30843 | 10634 ft | 320 kts | 313° |
| 2026-05-05 09:41 | 4.49409 | -52.32535 | 10190 ft | 316 kts | 313° |
| 2026-05-05 09:41 | 4.50823 | -52.34205 | 9548 ft | 314 kts | 313° |
| 2026-05-05 09:42 | 4.52228 | -52.35864 | 8900 ft | 310 kts | 313° |
| 2026-05-05 09:42 | 4.53604 | -52.37491 | 8402 ft | 300 kts | 313° |
| 2026-05-05 09:42 | 4.54938 | -52.39068 | 7995 ft | 296 kts | 313° |
| 2026-05-05 09:42 | 4.56274 | -52.40642 | 7572 ft | 296 kts | 313° |
| 2026-05-05 09:43 | 4.57612 | -52.42218 | 7138 ft | 297 kts | 313° |
| 2026-05-05 09:43 | 4.58954 | -52.43800 | 6712 ft | 297 kts | 313° |
| 2026-05-05 09:43 | 4.60291 | -52.45379 | 6240 ft | 298 kts | 313° |
| 2026-05-05 09:43 | 4.61620 | -52.46951 | 5811 ft | 291 kts | 313° |
| 2026-05-05 09:44 | 4.62895 | -52.48460 | 5542 ft | 273 kts | 314° |
| 2026-05-05 09:44 | 4.64084 | -52.49871 | 5245 ft | 259 kts | 314° |
| 2026-05-05 09:44 | 4.65246 | -52.51261 | 4692 ft | 258 kts | 310° |
| 2026-05-05 09:44 | 4.66078 | -52.52868 | 4010 ft | 262 kts | 296° |
| 2026-05-05 09:45 | 4.67100 | -52.54378 | 3350 ft | 263 kts | 322° |
| 2026-05-05 09:45 | 4.68563 | -52.55454 | 2691 ft | 261 kts | 330° |
| 2026-05-05 09:45 | 4.70152 | -52.56254 | 2165 ft | 249 kts | 347° |
| 2026-05-05 09:45 | 4.71763 | -52.56429 | 2033 ft | 222 kts | 18° |
| 2026-05-05 09:46 | 4.72934 | -52.55641 | 2023 ft | 196 kts | 60° |
| 2026-05-05 09:46 | 4.73540 | -52.54451 | 2026 ft | 189 kts | 66° |
| 2026-05-05 09:46 | 4.74089 | -52.53278 | 2024 ft | 187 kts | 66° |
| 2026-05-05 09:46 | 4.74458 | -52.52482 | 2024 ft | 186 kts | 66° |
| 2026-05-05 09:47 | 4.75177 | -52.50924 | 2023 ft | 186 kts | 66° |
| 2026-05-05 09:47 | 4.75714 | -52.49760 | 2048 ft | 177 kts | 66° |
| 2026-05-05 09:47 | 4.76196 | -52.48718 | 2040 ft | 154 kts | 66° |
| 2026-05-05 09:47 | 4.76489 | -52.48081 | 2020 ft | 145 kts | 66° |
| 2026-05-05 09:48 | 4.77035 | -52.46898 | 1946 ft | 139 kts | 66° |
| 2026-05-05 09:48 | 4.77308 | -52.46305 | 1845 ft | 139 kts | 67° |
| 2026-05-05 09:48 | 4.77710 | -52.45434 | 1692 ft | 137 kts | 67° |
| 2026-05-05 09:48 | 4.78109 | -52.44569 | 1522 ft | 137 kts | 66° |
| 2026-05-05 09:49 | 4.78507 | -52.43704 | 1342 ft | 136 kts | 66° |
| 2026-05-05 09:49 | 4.78904 | -52.42843 | 1174 ft | 136 kts | 67° |
| 2026-05-05 09:49 | 4.79302 | -52.41980 | 999 ft | 137 kts | 66° |
| 2026-05-05 09:49 | 4.79708 | -52.41114 | 823 ft | 139 kts | 65° |
| 2026-05-05 09:50 | 4.80127 | -52.40238 | 654 ft | 140 kts | 66° |
| 2026-05-05 09:50 | 4.80517 | -52.39340 | 475 ft | 141 kts | 68° |
| 2026-05-05 09:50 | 4.80922 | -52.38445 | 305 ft | 141 kts | 65° |
| 2026-05-05 09:50 | 4.81331 | -52.37556 | 95 ft | 140 kts | 65° |
| 2026-05-05 09:51 | 4.81714 | -52.36722 | 28 ft | 114 kts | 65° |
| 2026-05-05 09:51 | 4.81917 | -52.36283 | 28 ft | 17 kts | 64° |
| 2026-05-05 09:51 | 4.81972 | -52.36219 | 29 ft | 8 kts | 7° |
| 2026-05-05 09:51 | 4.82010 | -52.36228 | 29 ft | 4 kts | 344° |
| 2026-05-05 09:52 | 4.82032 | -52.36240 | 29 ft | 3 kts | 332° |
| 2026-05-05 09:52 | 4.82047 | -52.36247 | 29 ft | 2 kts | 334° |
| 2026-05-05 09:52 | 4.82054 | -52.36250 | 29 ft | 0 kts | 334° |
| 2026-05-05 09:52 | 4.82055 | -52.36251 | 29 ft | 0 kts | 334° |
| 2026-05-05 09:54 | 4.82064 | -52.36255 | 29 ft | 3 kts | 333° |
| 2026-05-05 09:54 | 4.82083 | -52.36265 | 29 ft | 3 kts | 333° |
| 2026-05-05 09:55 | 4.82095 | -52.36276 | 29 ft | 2 kts | 310° |
| 2026-05-05 09:55 | 4.82098 | -52.36284 | 29 ft | 1 kts | 294° |
| 2026-05-05 09:55 | 4.82098 | -52.36289 | 29 ft | 2 kts | 270° |
| 2026-05-05 09:55 | 4.82073 | -52.36332 | 29 ft | 8 kts | 246° |
| 2026-05-05 09:56 | 4.82052 | -52.36381 | 29 ft | 7 kts | 246° |
| 2026-05-05 09:56 | 4.82030 | -52.36427 | 29 ft | 7 kts | 244° |
| 2026-05-05 09:56 | 4.82038 | -52.36453 | 29 ft | 4 kts | 338° |
| 2026-05-05 09:56 | 4.82058 | -52.36463 | 29 ft | 3 kts | 334° |
| 2026-05-05 09:57 | 4.82072 | -52.36470 | 29 ft | 2 kts | 336° |
| 2026-05-05 09:57 | 4.82083 | -52.36473 | 29 ft | 1 kts | 339° |
| 2026-05-05 09:57 | 4.82089 | -52.36476 | 29 ft | 1 kts | 339° |
| 2026-05-05 09:57 | 4.82090 | -52.36476 | 29 ft | 0 kts | 339° |